createdAt,value
2018-12-18T00:00:56.524Z,1.90
2018-12-18T00:01:56.066Z,1.70
2018-12-18T00:02:56.049Z,2.00
2018-12-18T00:03:56.034Z,1.80
2018-12-18T00:04:56.021Z,1.60
2018-12-18T00:05:56.028Z,1.90
2018-12-18T00:06:55.999Z,1.70
2018-12-18T00:07:55.999Z,1.80
2018-12-18T00:08:55.979Z,1.90
2018-12-18T00:09:55.965Z,1.90
2018-12-18T00:10:55.955Z,1.70
2018-12-18T00:11:59.247Z,1.60
2018-12-18T00:12:55.935Z,1.80
2018-12-18T00:13:55.925Z,1.70
2018-12-18T00:14:55.912Z,1.70
2018-12-18T00:15:55.900Z,2.00
2018-12-18T00:16:55.899Z,1.80
2018-12-18T00:17:55.878Z,1.80
2018-12-18T00:18:55.868Z,1.50
2018-12-18T00:19:55.871Z,1.90
2018-12-18T00:20:55.845Z,2.00
2018-12-18T00:21:55.837Z,1.90
2018-12-18T00:22:55.825Z,1.70
2018-12-18T00:23:55.811Z,1.80
2018-12-18T00:24:55.810Z,1.80
2018-12-18T00:25:55.807Z,1.90
2018-12-18T00:26:55.778Z,1.90
2018-12-18T00:27:55.771Z,1.50
2018-12-18T00:28:55.755Z,1.80
2018-12-18T00:29:55.745Z,1.90
2018-12-18T00:30:55.734Z,1.60
2018-12-18T00:31:55.724Z,1.80
2018-12-18T00:32:55.724Z,1.70
2018-12-18T00:33:55.702Z,1.70
2018-12-18T00:34:55.690Z,1.70
2018-12-18T00:35:55.680Z,1.60
2018-12-18T00:36:55.683Z,1.90
2018-12-18T00:37:55.662Z,1.80
2018-12-18T00:38:55.652Z,1.70
2018-12-18T00:39:55.634Z,1.80
2018-12-18T00:40:55.623Z,1.70
2018-12-18T00:41:55.613Z,1.60
2018-12-18T00:42:55.604Z,1.90
2018-12-18T00:43:55.599Z,1.90
2018-12-18T00:44:55.582Z,1.50
2018-12-18T00:45:55.570Z,1.60
2018-12-18T00:46:55.561Z,1.60
2018-12-18T00:47:55.552Z,1.60
2018-12-18T00:48:55.535Z,1.50
2018-12-18T00:49:55.530Z,1.70
2018-12-18T00:50:55.519Z,1.70
2018-12-18T00:51:55.501Z,1.50
2018-12-18T00:52:55.491Z,1.60
2018-12-18T00:53:55.485Z,1.60
2018-12-18T00:54:55.473Z,1.50
2018-12-18T00:55:55.461Z,1.50
2018-12-18T00:56:55.461Z,1.50
2018-12-18T00:57:55.435Z,1.60
2018-12-18T00:58:55.426Z,1.90
2018-12-18T00:59:55.449Z,1.70
2018-12-18T01:00:55.410Z,1.90
2018-12-18T01:01:55.394Z,1.90
2018-12-18T01:02:55.381Z,1.90
2018-12-18T01:03:55.368Z,2.00
2018-12-18T01:04:55.362Z,2.30
2018-12-18T01:05:55.536Z,1.80
2018-12-18T01:06:55.335Z,1.80
2018-12-18T01:07:55.326Z,1.80
2018-12-18T01:08:55.313Z,1.90
2018-12-18T01:09:55.362Z,1.70
2018-12-18T01:10:55.317Z,1.80
2018-12-18T01:11:55.285Z,1.90
2018-12-18T01:12:55.269Z,2.10
2018-12-18T01:13:55.257Z,1.90
2018-12-18T01:14:55.248Z,2.10
2018-12-18T01:15:55.239Z,1.90
2018-12-18T01:16:55.230Z,1.80
2018-12-18T01:17:55.214Z,1.60
2018-12-18T01:18:55.203Z,1.60
2018-12-18T01:19:55.194Z,1.80
2018-12-18T01:20:55.184Z,1.70
2018-12-18T01:21:55.179Z,1.80
2018-12-18T01:22:55.159Z,1.70
2018-12-18T01:23:55.150Z,1.70
2018-12-18T01:24:55.137Z,1.90
2018-12-18T01:25:55.127Z,1.80
2018-12-18T01:26:55.151Z,1.90
2018-12-18T01:27:55.103Z,1.90
2018-12-18T01:28:55.101Z,1.70
2018-12-18T01:29:55.081Z,1.90
2018-12-18T01:30:55.070Z,1.70
2018-12-18T01:31:55.060Z,1.90
2018-12-18T01:32:55.058Z,1.60
2018-12-18T01:33:59.242Z,2.00
2018-12-18T01:34:55.027Z,1.80
2018-12-18T01:35:55.020Z,1.70
2018-12-18T01:36:55.007Z,1.90
2018-12-18T01:37:55.020Z,1.80
2018-12-18T01:38:54.982Z,1.90
2018-12-18T01:39:54.970Z,1.80
2018-12-18T01:40:54.966Z,1.60
2018-12-18T01:41:54.952Z,1.70
2018-12-18T01:42:54.938Z,1.60
2018-12-18T01:43:54.932Z,1.60
2018-12-18T01:44:54.916Z,1.60
2018-12-18T01:45:54.909Z,1.70
2018-12-18T01:46:54.895Z,1.50
2018-12-18T01:47:54.892Z,1.80
2018-12-18T01:48:54.883Z,1.90
2018-12-18T01:49:54.865Z,1.70
2018-12-18T01:50:54.858Z,1.80
2018-12-18T01:51:54.841Z,1.40
2018-12-18T01:52:54.827Z,1.70
2018-12-18T01:53:54.851Z,1.60
2018-12-18T01:54:54.805Z,1.60
2018-12-18T01:55:54.853Z,1.60
2018-12-18T01:56:54.791Z,1.60
2018-12-18T01:57:54.773Z,1.70
2018-12-18T01:58:54.775Z,1.70
2018-12-18T01:59:54.757Z,1.50
2018-12-18T02:00:54.740Z,1.60
2018-12-18T02:01:54.732Z,1.60
2018-12-18T02:02:54.721Z,1.60
2018-12-18T02:03:54.710Z,1.60
2018-12-18T02:04:54.708Z,1.50
2018-12-18T02:05:54.693Z,1.60
2018-12-18T02:06:54.673Z,1.60
2018-12-18T02:07:54.662Z,1.60
2018-12-18T02:08:54.651Z,1.60
2018-12-18T02:09:54.647Z,1.60
2018-12-18T02:10:54.632Z,1.30
2018-12-18T02:11:54.621Z,1.50
2018-12-18T02:12:54.608Z,1.60
2018-12-18T02:13:54.598Z,1.40
2018-12-18T02:14:54.584Z,1.40
2018-12-18T02:15:54.583Z,1.40
2018-12-18T02:16:54.567Z,1.50
2018-12-18T02:17:54.557Z,1.50
2018-12-18T02:18:54.542Z,1.60
2018-12-18T02:19:54.534Z,1.40
2018-12-18T02:20:54.537Z,1.60
2018-12-18T02:21:54.509Z,1.50
2018-12-18T02:22:54.496Z,1.40
2018-12-18T02:23:54.485Z,1.50
2018-12-18T02:24:54.480Z,1.50
2018-12-18T02:25:54.466Z,1.60
2018-12-18T02:26:54.459Z,1.50
2018-12-18T02:27:54.444Z,1.60
2018-12-18T02:28:54.435Z,1.60
2018-12-18T02:29:54.423Z,1.40
2018-12-18T02:30:54.409Z,1.70
2018-12-18T02:31:54.413Z,1.40
2018-12-18T02:32:54.386Z,1.60
2018-12-18T02:33:54.380Z,1.50
2018-12-18T02:34:54.374Z,1.60
2018-12-18T02:35:54.355Z,1.50
2018-12-18T02:36:54.347Z,1.40
2018-12-18T02:37:54.337Z,1.50
2018-12-18T02:38:54.325Z,1.40
2018-12-18T02:39:54.310Z,1.60
2018-12-18T02:40:54.299Z,1.70
2018-12-18T02:41:54.289Z,1.40
2018-12-18T02:42:54.552Z,1.40
2018-12-18T02:43:54.264Z,1.50
2018-12-18T02:44:54.253Z,1.60
2018-12-18T02:45:54.249Z,1.50
2018-12-18T02:46:54.232Z,1.50
2018-12-18T02:47:54.221Z,1.60
2018-12-18T02:48:54.241Z,1.80
2018-12-18T02:49:54.201Z,1.60
2018-12-18T02:50:54.186Z,1.70
2018-12-18T02:51:54.176Z,1.70
2018-12-18T02:52:54.166Z,1.50
2018-12-18T02:53:54.167Z,1.90
2018-12-18T02:54:54.152Z,1.60
2018-12-18T02:55:54.132Z,1.70
2018-12-18T02:56:54.125Z,1.50
2018-12-18T02:57:54.109Z,1.50
2018-12-18T02:58:54.098Z,1.50
2018-12-18T02:59:54.087Z,1.60
2018-12-18T03:00:54.098Z,1.70
2018-12-18T03:01:54.066Z,1.70
2018-12-18T03:02:54.056Z,1.70
2018-12-18T03:03:54.053Z,1.50
2018-12-18T03:04:54.033Z,1.90
2018-12-18T03:05:54.026Z,1.40
2018-12-18T03:06:54.018Z,1.60
2018-12-18T03:07:54.001Z,1.60
2018-12-18T03:08:53.988Z,1.50
2018-12-18T03:09:53.980Z,1.60
2018-12-18T03:10:53.971Z,1.70
2018-12-18T03:11:53.956Z,1.50
2018-12-18T03:12:53.948Z,1.70
2018-12-18T03:13:53.933Z,1.40
2018-12-18T03:14:53.936Z,1.60
2018-12-18T03:15:53.910Z,1.60
2018-12-18T03:16:53.904Z,1.50
2018-12-18T03:17:53.904Z,1.70
2018-12-18T03:18:53.881Z,1.50
2018-12-18T03:19:53.873Z,1.30
2018-12-18T03:20:53.859Z,1.70
2018-12-18T03:21:53.851Z,1.60
2018-12-18T03:22:53.835Z,1.60
2018-12-18T03:23:53.830Z,1.70
2018-12-18T03:24:53.811Z,1.50
2018-12-18T03:25:53.807Z,1.50
2018-12-18T03:26:53.791Z,1.50
2018-12-18T03:27:53.777Z,1.50
2018-12-18T03:28:53.767Z,1.70
2018-12-18T03:29:53.769Z,1.50
2018-12-18T03:30:53.757Z,1.40
2018-12-18T03:31:53.735Z,1.30
2018-12-18T03:32:53.733Z,1.50
2018-12-18T03:33:53.711Z,1.50
2018-12-18T03:34:53.710Z,1.50
2018-12-18T03:35:53.691Z,1.40
2018-12-18T03:36:53.678Z,1.40
2018-12-18T03:37:53.675Z,1.20
2018-12-18T03:38:53.657Z,1.50
2018-12-18T03:39:53.646Z,1.60
2018-12-18T03:40:53.662Z,1.50
2018-12-18T03:41:53.623Z,1.60
2018-12-18T03:42:53.612Z,1.50
2018-12-18T03:43:53.604Z,1.40
2018-12-18T03:44:53.589Z,1.40
2018-12-18T03:45:53.583Z,1.40
2018-12-18T03:46:53.576Z,1.30
2018-12-18T03:47:53.567Z,1.40
2018-12-18T03:48:53.556Z,1.40
2018-12-18T03:49:53.533Z,1.40
2018-12-18T03:50:53.525Z,1.50
2018-12-18T03:51:53.561Z,1.60
2018-12-18T03:52:53.501Z,1.40
2018-12-18T03:53:53.492Z,1.30
2018-12-18T03:54:53.484Z,1.40
2018-12-18T03:55:53.471Z,1.40
2018-12-18T03:56:53.456Z,1.30
2018-12-18T03:57:53.475Z,1.40
2018-12-18T03:58:53.438Z,1.50
2018-12-18T03:59:53.430Z,1.30
2018-12-18T04:00:53.418Z,1.40
2018-12-18T04:01:53.401Z,1.50
2018-12-18T04:02:53.391Z,1.50
2018-12-18T04:03:53.385Z,1.30
2018-12-18T04:04:53.372Z,1.30
2018-12-18T04:05:53.361Z,1.40
2018-12-18T04:06:53.348Z,1.60
2018-12-18T04:07:53.337Z,1.40
2018-12-18T04:08:53.333Z,1.50
2018-12-18T04:09:53.313Z,1.40
2018-12-18T04:10:53.302Z,1.30
2018-12-18T04:11:53.303Z,1.50
2018-12-18T04:12:53.285Z,1.30
2018-12-18T04:13:53.269Z,1.50
2018-12-18T04:14:53.266Z,1.40
2018-12-18T04:15:53.247Z,1.30
2018-12-18T04:16:53.237Z,1.30
2018-12-18T04:17:53.228Z,1.20
2018-12-18T04:18:53.228Z,1.40
2018-12-18T04:19:53.209Z,1.50
2018-12-18T04:20:53.203Z,1.20
2018-12-18T04:21:53.180Z,1.20
2018-12-18T04:22:53.171Z,1.50
2018-12-18T04:23:53.169Z,1.20
2018-12-18T04:24:53.157Z,1.40
2018-12-18T04:25:53.137Z,1.30
2018-12-18T04:26:53.140Z,1.10
2018-12-18T04:27:53.115Z,1.40
2018-12-18T04:28:53.103Z,1.30
2018-12-18T04:29:53.094Z,1.40
2018-12-18T04:30:53.085Z,1.10
2018-12-18T04:31:53.097Z,1.40
2018-12-18T04:32:53.062Z,1.20
2018-12-18T04:33:53.055Z,1.30
2018-12-18T04:34:53.043Z,1.40
2018-12-18T04:35:53.026Z,1.20
2018-12-18T04:36:53.018Z,1.30
2018-12-18T04:37:53.013Z,1.20
2018-12-18T04:38:52.994Z,1.20
2018-12-18T04:39:52.997Z,1.30
2018-12-18T04:40:52.985Z,1.60
2018-12-18T04:41:52.959Z,1.20
2018-12-18T04:42:52.949Z,1.20
2018-12-18T04:43:52.941Z,1.20
2018-12-18T04:44:52.927Z,1.20
2018-12-18T04:45:52.928Z,1.20
2018-12-18T04:46:52.909Z,1.40
2018-12-18T04:47:52.894Z,1.20
2018-12-18T04:48:52.909Z,1.30
2018-12-18T04:49:52.873Z,1.50
2018-12-18T04:50:52.864Z,1.30
2018-12-18T04:51:52.851Z,1.20
2018-12-18T04:52:52.839Z,1.20
2018-12-18T04:53:52.828Z,1.40
2018-12-18T04:54:52.828Z,1.20
2018-12-18T04:55:52.805Z,1.10
2018-12-18T04:56:52.798Z,1.00
2018-12-18T04:57:52.785Z,1.10
2018-12-18T04:58:52.777Z,1.10
2018-12-18T04:59:52.774Z,1.30
2018-12-18T05:00:52.755Z,1.30
2018-12-18T05:01:52.738Z,1.30
2018-12-18T05:02:52.732Z,1.20
2018-12-18T05:03:52.731Z,1.10
2018-12-18T05:04:52.707Z,1.10
2018-12-18T05:05:52.735Z,1.20
2018-12-18T05:06:52.684Z,1.00
2018-12-18T05:07:52.679Z,1.20
2018-12-18T05:08:52.668Z,1.30
2018-12-18T05:09:52.653Z,1.20
2018-12-18T05:10:52.640Z,1.10
2018-12-18T05:11:52.639Z,1.30
2018-12-18T05:12:52.618Z,1.00
2018-12-18T05:13:52.610Z,1.10
2018-12-18T05:14:52.600Z,1.20
2018-12-18T05:15:52.585Z,1.20
2018-12-18T05:16:52.581Z,1.20
2018-12-18T05:17:52.576Z,1.10
2018-12-18T05:18:52.561Z,1.10
2018-12-18T05:19:52.542Z,1.10
2018-12-18T05:20:52.533Z,1.20
2018-12-18T05:21:52.519Z,1.10
2018-12-18T05:22:52.588Z,1.10
2018-12-18T05:23:52.499Z,1.20
2018-12-18T05:24:52.496Z,1.00
2018-12-18T05:25:52.480Z,1.20
2018-12-18T05:26:52.463Z,1.10
2018-12-18T05:27:52.452Z,1.40
2018-12-18T05:28:52.455Z,1.00
2018-12-18T05:29:52.429Z,1.10
2018-12-18T05:30:52.423Z,1.30
2018-12-18T05:31:52.410Z,1.10
2018-12-18T05:32:52.397Z,1.00
2018-12-18T05:33:52.384Z,1.10
2018-12-18T05:34:56.519Z,1.10
2018-12-18T05:35:52.377Z,1.20
2018-12-18T05:36:52.352Z,1.10
2018-12-18T05:37:52.347Z,1.10
2018-12-18T05:38:52.330Z,1.10
2018-12-18T05:39:52.328Z,1.00
2018-12-18T05:40:52.321Z,1.10
2018-12-18T05:41:52.305Z,1.20
2018-12-18T05:42:52.304Z,1.10
2018-12-18T05:43:52.275Z,0.90
2018-12-18T05:44:52.293Z,1.10
2018-12-18T05:45:52.264Z,1.00
2018-12-18T05:46:52.243Z,1.20
2018-12-18T05:47:52.235Z,1.00
2018-12-18T05:48:52.243Z,1.20
2018-12-18T05:49:52.209Z,1.10
2018-12-18T05:50:52.199Z,1.10
2018-12-18T05:51:52.198Z,1.00
2018-12-18T05:52:52.175Z,1.30
2018-12-18T05:53:52.166Z,1.20
2018-12-18T05:54:52.157Z,1.00
2018-12-18T05:55:52.143Z,1.10
2018-12-18T05:56:52.135Z,1.10
2018-12-18T05:57:52.126Z,0.90
2018-12-18T05:58:52.113Z,1.00
2018-12-18T05:59:52.102Z,1.20
2018-12-18T06:00:52.087Z,1.00
2018-12-18T06:01:52.077Z,1.10
2018-12-18T06:02:52.096Z,0.90
2018-12-18T06:03:52.054Z,1.00
2018-12-18T06:04:52.064Z,0.90
2018-12-18T06:05:52.037Z,1.10
2018-12-18T06:06:52.021Z,0.90
2018-12-18T06:07:52.009Z,1.20
2018-12-18T06:08:52.013Z,1.00
2018-12-18T06:09:51.988Z,1.00
2018-12-18T06:10:51.979Z,1.10
2018-12-18T06:11:51.971Z,1.20
2018-12-18T06:12:51.958Z,1.10
2018-12-18T06:13:51.947Z,1.00
2018-12-18T06:14:51.941Z,1.00
2018-12-18T06:15:51.922Z,0.90
2018-12-18T06:16:51.910Z,1.00
2018-12-18T06:17:51.901Z,1.10
2018-12-18T06:18:51.898Z,1.00
2018-12-18T06:19:51.894Z,1.10
2018-12-18T06:20:51.868Z,1.00
2018-12-18T06:21:51.860Z,1.00
2018-12-18T06:22:51.844Z,0.90
2018-12-18T06:23:51.833Z,1.00
2018-12-18T06:24:51.823Z,1.00
2018-12-18T06:25:51.820Z,1.00
2018-12-18T06:26:51.799Z,0.90
2018-12-18T06:27:51.811Z,1.10
2018-12-18T06:28:51.784Z,1.10
2018-12-18T06:29:51.786Z,1.10
2018-12-18T06:30:51.756Z,1.20
2018-12-18T06:31:51.753Z,0.80
2018-12-18T06:32:51.734Z,1.00
2018-12-18T06:33:51.727Z,1.00
2018-12-18T06:34:51.712Z,1.10
2018-12-18T06:35:51.701Z,1.00
2018-12-18T06:36:51.699Z,1.00
2018-12-18T06:37:51.680Z,1.00
2018-12-18T06:38:51.673Z,1.10
2018-12-18T06:39:51.662Z,1.00
2018-12-18T06:40:51.649Z,0.90
2018-12-18T06:41:51.637Z,1.00
2018-12-18T06:42:51.664Z,0.90
2018-12-18T06:43:51.628Z,1.10
2018-12-18T06:44:51.604Z,0.90
2018-12-18T06:45:51.592Z,1.10
2018-12-18T06:46:51.579Z,1.00
2018-12-18T06:47:51.569Z,0.90
2018-12-18T06:48:51.568Z,0.90
2018-12-18T06:49:51.545Z,1.00
2018-12-18T06:50:51.546Z,0.90
2018-12-18T06:51:51.524Z,1.00
2018-12-18T06:52:51.513Z,1.00
2018-12-18T06:53:51.510Z,1.20
2018-12-18T06:54:51.492Z,1.00
2018-12-18T06:55:51.494Z,0.90
2018-12-18T06:56:51.470Z,1.00
2018-12-18T06:57:51.457Z,0.90
2018-12-18T06:58:51.457Z,1.00
2018-12-18T06:59:51.446Z,1.10
2018-12-18T07:00:51.424Z,1.10
2018-12-18T07:01:51.416Z,1.10
2018-12-18T07:02:51.402Z,1.00
2018-12-18T07:03:51.393Z,0.90
2018-12-18T07:04:51.382Z,0.90
2018-12-18T07:05:51.375Z,1.10
2018-12-18T07:06:51.361Z,1.00
2018-12-18T07:07:57.226Z,1.00
2018-12-18T07:08:52.337Z,1.10
2018-12-18T07:09:51.330Z,1.20
2018-12-18T07:10:51.334Z,0.90
2018-12-18T07:11:51.304Z,1.00
2018-12-18T07:12:51.300Z,1.30
2018-12-18T07:13:51.285Z,0.90
2018-12-18T07:14:51.270Z,0.90
2018-12-18T07:15:51.258Z,1.10
2018-12-18T07:16:51.258Z,1.00
2018-12-18T07:17:51.236Z,1.00
2018-12-18T07:18:51.234Z,1.10
2018-12-18T07:19:51.216Z,0.90
2018-12-18T07:20:51.203Z,1.10
2018-12-18T07:21:51.191Z,1.10
2018-12-18T07:22:51.210Z,1.00
2018-12-18T07:23:51.170Z,1.10
2018-12-18T07:24:51.158Z,0.90
2018-12-18T07:25:51.150Z,1.10
2018-12-18T07:26:51.137Z,1.00
2018-12-18T07:27:51.124Z,0.90
2018-12-18T07:28:51.125Z,0.90
2018-12-18T07:29:51.107Z,0.80
2018-12-18T07:30:51.095Z,1.00
2018-12-18T07:31:51.085Z,0.80
2018-12-18T07:32:51.076Z,1.00
2018-12-18T07:33:51.062Z,1.00
2018-12-18T07:34:51.065Z,1.00
2018-12-18T07:35:51.043Z,0.80
2018-12-18T07:36:51.027Z,0.90
2018-12-18T07:37:51.016Z,1.00
2018-12-18T07:38:51.016Z,0.90
2018-12-18T07:39:50.998Z,1.00
2018-12-18T07:40:50.991Z,1.00
2018-12-18T07:41:50.972Z,0.90
2018-12-18T07:42:50.962Z,1.00
2018-12-18T07:43:50.951Z,0.90
2018-12-18T07:44:50.941Z,0.90
2018-12-18T07:45:51.106Z,0.90
2018-12-18T07:46:50.918Z,0.90
2018-12-18T07:47:50.912Z,0.80
2018-12-18T07:48:50.956Z,0.90
2018-12-18T07:49:50.884Z,0.90
2018-12-18T07:50:50.874Z,0.90
2018-12-18T07:51:50.883Z,0.90
2018-12-18T07:52:50.850Z,0.90
2018-12-18T07:53:50.839Z,0.90
2018-12-18T07:54:50.844Z,0.90
2018-12-18T07:55:50.817Z,1.00
2018-12-18T07:56:50.808Z,0.80
2018-12-18T07:57:51.095Z,1.10
2018-12-18T07:58:50.784Z,0.70
2018-12-18T07:59:50.777Z,0.90
2018-12-18T08:00:50.766Z,0.90
2018-12-18T08:01:50.752Z,1.00
2018-12-18T08:02:50.739Z,0.90
2018-12-18T08:03:51.091Z,0.80
2018-12-18T08:04:50.729Z,0.90
2018-12-18T08:05:50.715Z,1.00
2018-12-18T08:06:50.696Z,0.90
2018-12-18T08:07:50.688Z,0.90
2018-12-18T08:08:50.679Z,0.90
2018-12-18T08:09:50.674Z,1.00
2018-12-18T08:10:50.657Z,1.00
2018-12-18T08:11:50.643Z,1.00
2018-12-18T08:12:50.631Z,0.80
2018-12-18T08:13:50.621Z,1.00
2018-12-18T08:14:50.628Z,0.90
2018-12-18T08:15:50.609Z,0.90
2018-12-18T08:16:50.590Z,1.00
2018-12-18T08:17:50.575Z,0.80
2018-12-18T08:18:50.568Z,1.00
2018-12-18T08:19:50.556Z,0.90
2018-12-18T08:20:50.568Z,1.10
2018-12-18T08:21:50.562Z,0.90
2018-12-18T08:22:50.520Z,0.90
2018-12-18T08:23:50.510Z,1.10
2018-12-18T08:24:50.497Z,0.90
2018-12-18T08:25:50.490Z,0.90
2018-12-18T08:26:50.484Z,0.90
2018-12-18T08:27:50.480Z,0.90
2018-12-18T08:28:50.452Z,0.90
2018-12-18T08:29:50.442Z,0.80
2018-12-18T08:30:50.433Z,1.00
2018-12-18T08:31:50.423Z,0.80
2018-12-18T08:32:50.410Z,0.90
2018-12-18T08:33:50.441Z,0.90
2018-12-18T08:34:50.404Z,0.90
2018-12-18T08:35:50.376Z,0.80
2018-12-18T08:36:50.371Z,0.90
2018-12-18T08:37:50.366Z,0.80
2018-12-18T08:38:50.347Z,0.80
2018-12-18T08:39:50.601Z,0.80
2018-12-18T08:40:50.323Z,0.90
2018-12-18T08:41:50.310Z,0.90
2018-12-18T08:42:50.299Z,1.40
2018-12-18T08:43:50.324Z,1.20
2018-12-18T08:44:50.278Z,1.30
2018-12-18T08:45:50.601Z,1.50
2018-12-18T08:46:50.257Z,1.60
2018-12-18T08:47:50.247Z,1.50
2018-12-18T08:48:50.244Z,1.40
2018-12-18T08:49:50.237Z,1.40
2018-12-18T08:50:50.216Z,1.60
2018-12-18T08:51:50.216Z,1.50
2018-12-18T08:52:50.190Z,1.60
2018-12-18T08:53:50.179Z,2.00
2018-12-18T08:54:50.167Z,1.50
2018-12-18T08:55:50.162Z,1.50
2018-12-18T08:56:50.172Z,1.60
2018-12-18T08:57:50.627Z,1.50
2018-12-18T08:58:50.131Z,1.60
2018-12-18T08:59:50.114Z,1.50
2018-12-18T09:00:50.107Z,1.60
2018-12-18T09:01:50.092Z,1.80
2018-12-18T09:02:50.078Z,1.70
2018-12-18T09:03:50.099Z,1.30
2018-12-18T09:04:50.059Z,1.40
2018-12-18T09:05:50.054Z,1.60
2018-12-18T09:06:50.034Z,1.50
2018-12-18T09:07:50.024Z,1.50
2018-12-18T09:08:50.019Z,1.50
2018-12-18T09:09:50.101Z,1.60
2018-12-18T09:10:49.988Z,1.70
2018-12-18T09:11:49.982Z,1.40
2018-12-18T09:12:49.976Z,1.50
2018-12-18T09:13:49.964Z,1.60
2018-12-18T09:14:49.944Z,1.60
2018-12-18T09:15:50.110Z,1.30
2018-12-18T09:16:49.928Z,1.50
2018-12-18T09:17:49.910Z,1.60
2018-12-18T09:18:49.902Z,1.50
2018-12-18T09:19:49.890Z,1.50
2018-12-18T09:20:49.883Z,1.50
2018-12-18T09:21:50.125Z,1.50
2018-12-18T09:22:49.862Z,1.60
2018-12-18T09:23:49.847Z,1.70
2018-12-18T09:24:49.834Z,1.50
2018-12-18T09:25:49.824Z,1.50
2018-12-18T09:26:49.814Z,1.50
2018-12-18T09:27:50.105Z,1.40
2018-12-18T09:28:49.791Z,1.50
2018-12-18T09:29:49.783Z,1.50
2018-12-18T09:30:49.771Z,1.50
2018-12-18T09:31:49.758Z,1.40
2018-12-18T09:32:49.745Z,1.30
2018-12-18T09:33:50.102Z,1.50
2018-12-18T09:34:49.724Z,1.40
2018-12-18T09:35:49.916Z,1.50
2018-12-18T09:36:49.702Z,1.30
2018-12-18T09:37:49.691Z,1.50
2018-12-18T09:38:49.691Z,1.30
2018-12-18T09:39:50.106Z,1.40
2018-12-18T09:40:49.659Z,1.50
2018-12-18T09:41:49.650Z,1.60
2018-12-18T09:42:49.638Z,1.50
2018-12-18T09:43:49.626Z,1.30
2018-12-18T09:44:49.613Z,1.50
2018-12-18T09:45:49.612Z,1.20
2018-12-18T09:46:50.991Z,1.40
2018-12-18T09:47:49.581Z,1.50
2018-12-18T09:48:49.586Z,1.50
2018-12-18T09:49:49.561Z,1.20
2018-12-18T09:50:49.559Z,1.50
2018-12-18T09:51:49.608Z,1.60
2018-12-18T09:52:49.526Z,1.50
2018-12-18T09:53:49.516Z,1.60
2018-12-18T09:54:49.505Z,2.20
2018-12-18T09:55:49.494Z,1.30
2018-12-18T09:56:49.486Z,1.70
2018-12-18T09:57:49.606Z,1.50
2018-12-18T09:58:49.462Z,1.50
2018-12-18T09:59:49.452Z,1.40
2018-12-18T10:00:49.439Z,1.50
2018-12-18T10:01:49.428Z,1.30
2018-12-18T10:02:49.419Z,1.50
2018-12-18T10:03:49.646Z,1.60
2018-12-18T10:04:49.393Z,1.50
2018-12-18T10:05:49.384Z,1.30
2018-12-18T10:06:49.372Z,1.40
2018-12-18T10:07:49.366Z,1.60
2018-12-18T10:08:49.348Z,1.50
2018-12-18T10:09:49.607Z,1.50
2018-12-18T10:10:49.327Z,1.50
2018-12-18T10:11:49.319Z,1.40
2018-12-18T10:12:49.306Z,1.60
2018-12-18T10:13:49.301Z,1.40
2018-12-18T10:14:49.283Z,1.50
2018-12-18T10:15:49.614Z,1.40
2018-12-18T10:16:49.263Z,1.40
2018-12-18T10:17:49.251Z,1.40
2018-12-18T10:18:49.240Z,1.50
2018-12-18T10:19:49.229Z,1.60
2018-12-18T10:20:49.221Z,1.50
2018-12-18T10:21:49.617Z,1.40
2018-12-18T10:22:49.196Z,1.40
2018-12-18T10:23:49.186Z,1.30
2018-12-18T10:24:49.227Z,1.50
2018-12-18T10:25:49.162Z,1.30
2018-12-18T10:26:49.150Z,1.30
2018-12-18T10:27:49.618Z,1.20
2018-12-18T10:28:49.142Z,1.40
2018-12-18T10:29:49.118Z,1.50
2018-12-18T10:30:49.113Z,1.50
2018-12-18T10:31:49.110Z,1.40
2018-12-18T10:32:49.084Z,1.20
2018-12-18T10:33:49.109Z,1.70
2018-12-18T10:34:49.070Z,1.40
2018-12-18T10:35:49.053Z,1.20
2018-12-18T10:36:49.043Z,1.50
2018-12-18T10:37:49.036Z,2.10
2018-12-18T10:38:49.018Z,1.20
2018-12-18T10:39:49.112Z,1.30
2018-12-18T10:40:49.001Z,1.30
2018-12-18T10:41:48.990Z,1.40
2018-12-18T10:42:48.975Z,1.40
2018-12-18T10:43:48.964Z,1.30
2018-12-18T10:44:48.972Z,1.30
2018-12-18T10:45:49.113Z,1.30
2018-12-18T10:46:48.931Z,1.30
2018-12-18T10:47:48.922Z,1.30
2018-12-18T10:48:48.911Z,1.20
2018-12-18T10:49:48.902Z,1.30
2018-12-18T10:50:48.895Z,1.40
2018-12-18T10:51:49.114Z,1.10
2018-12-18T10:52:48.864Z,1.50
2018-12-18T10:53:48.863Z,1.40
2018-12-18T10:54:48.887Z,1.20
2018-12-18T10:55:48.833Z,1.40
2018-12-18T10:56:48.820Z,1.20
2018-12-18T10:57:49.120Z,1.50
2018-12-18T10:58:48.798Z,1.30
2018-12-18T10:59:48.785Z,1.40
2018-12-18T11:00:48.791Z,1.50
2018-12-18T11:01:48.764Z,1.50
2018-12-18T11:02:48.754Z,1.30
2018-12-18T11:03:49.130Z,1.30
2018-12-18T11:04:48.744Z,1.40
2018-12-18T11:05:48.727Z,1.30
2018-12-18T11:06:48.710Z,1.30
2018-12-18T11:07:48.704Z,1.30
2018-12-18T11:08:48.691Z,1.30
2018-12-18T11:09:49.158Z,1.50
2018-12-18T11:10:48.668Z,1.30
2018-12-18T11:11:48.669Z,1.50
2018-12-18T11:12:48.644Z,1.10
2018-12-18T11:13:48.634Z,1.40
2018-12-18T11:14:48.628Z,1.40
2018-12-18T11:15:49.122Z,1.10
2018-12-18T11:16:48.599Z,1.20
2018-12-18T11:17:48.590Z,1.20
2018-12-18T11:18:48.580Z,1.50
2018-12-18T11:19:49.557Z,1.30
2018-12-18T11:20:48.566Z,1.30
2018-12-18T11:21:48.629Z,1.10
2018-12-18T11:22:48.542Z,1.10
2018-12-18T11:23:48.530Z,1.20
2018-12-18T11:24:48.515Z,1.20
2018-12-18T11:25:48.519Z,1.40
2018-12-18T11:26:48.493Z,1.30
2018-12-18T11:27:48.635Z,1.10
2018-12-18T11:28:48.479Z,1.20
2018-12-18T11:29:48.467Z,1.20
2018-12-18T11:30:48.447Z,1.20
2018-12-18T11:31:48.434Z,1.30
2018-12-18T11:32:48.424Z,1.20
2018-12-18T11:33:48.627Z,1.20
2018-12-18T11:34:48.402Z,1.20
2018-12-18T11:35:48.393Z,1.10
2018-12-18T11:36:48.377Z,1.20
2018-12-18T11:37:48.368Z,1.30
2018-12-18T11:38:48.362Z,1.40
2018-12-18T11:39:48.618Z,1.30
2018-12-18T11:40:48.335Z,1.00
2018-12-18T11:41:48.324Z,1.20
2018-12-18T11:42:48.312Z,1.20
2018-12-18T11:43:48.302Z,1.40
2018-12-18T11:44:48.293Z,1.20
2018-12-18T11:45:48.642Z,1.10
2018-12-18T11:46:48.274Z,1.10
2018-12-18T11:47:48.258Z,1.20
2018-12-18T11:48:48.247Z,1.10
2018-12-18T11:49:48.241Z,1.40
2018-12-18T11:50:48.237Z,1.20
2018-12-18T11:51:48.623Z,1.30
2018-12-18T11:52:48.202Z,1.30
2018-12-18T11:53:48.191Z,1.10
2018-12-18T11:54:48.182Z,1.00
2018-12-18T11:55:48.176Z,1.20
2018-12-18T11:56:48.161Z,1.30
2018-12-18T11:57:48.640Z,1.20
2018-12-18T11:58:48.137Z,1.40
2018-12-18T11:59:48.124Z,1.20
2018-12-18T12:00:48.114Z,1.20
2018-12-18T12:01:48.107Z,1.10
2018-12-18T12:02:48.093Z,1.10
2018-12-18T12:03:48.130Z,1.40
2018-12-18T12:04:48.075Z,1.10
2018-12-18T12:05:48.060Z,1.10
2018-12-18T12:06:48.052Z,1.20
2018-12-18T12:07:48.037Z,1.10
2018-12-18T12:08:48.029Z,1.20
2018-12-18T12:09:48.186Z,1.10
2018-12-18T12:10:48.027Z,1.00
2018-12-18T12:11:48.018Z,1.40
2018-12-18T12:12:48.001Z,1.10
2018-12-18T12:13:47.972Z,0.90
2018-12-18T12:14:47.975Z,1.10
2018-12-18T12:15:48.147Z,1.10
2018-12-18T12:16:47.941Z,1.20
2018-12-18T12:17:47.929Z,1.20
2018-12-18T12:18:47.920Z,1.10
2018-12-18T12:19:47.905Z,1.10
2018-12-18T12:20:48.609Z,1.30
2018-12-18T12:21:48.129Z,1.10
2018-12-18T12:22:47.871Z,1.00
2018-12-18T12:23:47.864Z,1.20
2018-12-18T12:24:47.849Z,1.20
2018-12-18T12:25:47.841Z,1.00
2018-12-18T12:26:47.831Z,1.10
2018-12-18T12:27:48.126Z,1.00
2018-12-18T12:28:47.805Z,1.20
2018-12-18T12:29:47.805Z,1.10
2018-12-18T12:30:47.784Z,1.10
2018-12-18T12:31:47.774Z,1.00
2018-12-18T12:32:47.759Z,1.10
2018-12-18T12:33:47.774Z,0.90
2018-12-18T12:34:47.739Z,1.30
2018-12-18T12:35:47.732Z,1.40
2018-12-18T12:36:47.724Z,1.50
2018-12-18T12:37:47.707Z,0.90
2018-12-18T12:38:47.699Z,1.10
2018-12-18T12:39:48.127Z,1.10
2018-12-18T12:40:47.675Z,1.30
2018-12-18T12:41:47.662Z,1.00
2018-12-18T12:42:47.653Z,1.00
2018-12-18T12:43:47.641Z,1.20
2018-12-18T12:44:47.628Z,1.10
2018-12-18T12:45:47.626Z,1.20
2018-12-18T12:46:47.625Z,1.10
2018-12-18T12:47:47.630Z,1.00
2018-12-18T12:48:47.588Z,1.00
2018-12-18T12:49:47.594Z,1.20
2018-12-18T12:50:47.564Z,1.10
2018-12-18T12:51:47.582Z,1.10
2018-12-18T12:52:47.544Z,1.00
2018-12-18T12:53:47.536Z,1.00
2018-12-18T12:54:47.517Z,1.00
2018-12-18T12:55:47.507Z,1.30
2018-12-18T12:56:47.499Z,1.30
2018-12-18T12:57:47.507Z,1.30
2018-12-18T12:58:47.474Z,1.20
2018-12-18T12:59:47.462Z,1.20
2018-12-18T13:00:47.452Z,1.10
2018-12-18T13:01:47.441Z,1.30
2018-12-18T13:02:47.442Z,1.20
2018-12-18T13:03:47.649Z,1.20
2018-12-18T13:04:47.409Z,1.20
2018-12-18T13:05:47.398Z,1.20
2018-12-18T13:06:47.387Z,1.20
2018-12-18T13:07:47.375Z,1.10
2018-12-18T13:08:47.364Z,1.10
2018-12-18T13:09:47.629Z,1.10
2018-12-18T13:10:47.344Z,1.30
2018-12-18T13:11:47.332Z,1.30
2018-12-18T13:12:47.320Z,1.20
2018-12-18T13:13:47.320Z,1.20
2018-12-18T13:14:48.322Z,1.20
2018-12-18T13:15:47.638Z,1.20
2018-12-18T13:16:47.295Z,1.20
2018-12-18T13:17:47.264Z,1.00
2018-12-18T13:18:47.253Z,1.00